Time;durP1;ratioP1;P1;durP2;ratioP2;P2;SDS_P1;SDS_P2;PMS_P1;PMS_P2;Temp;Humidity;BMP_temperature;BMP_pressure;BME280_temperature;BME280_humidity;BME280_pressure;Samples;Min_cycle;Max_cycle;Signal;HPM_P1;HPM_P2
2021/12/24 00:02:05;;;;;;;58.73;25.53;;;;;;;;;;5032675;28;20430;-51
2021/12/24 00:04:31;;;;;;;45.20;22.37;;;;;;;;;;5032182;28;20466;-49
2021/12/24 00:06:57;;;;;;;55.63;23.10;;;;;;;;;;5032305;28;20432;-49
2021/12/24 00:09:26;;;;;;;54.77;23.00;;;;;;;;;;5032517;28;20403;-50
2021/12/24 00:11:59;;;;;;;52.53;21.63;;;;;;;;;;5032386;28;20963;-49
2021/12/24 00:14:27;;;;;;;44.10;20.70;;;;;;;;;;5032501;28;20399;-51
2021/12/24 00:16:56;;;;;;;57.23;22.13;;;;;;;;;;5032010;28;20423;-48
2021/12/24 00:19:41;;;;;;;42.27;18.80;;;;;;;;;;5032328;28;20403;-49
2021/12/24 00:35:50;;;;;;;36.27;19.47;;;;;;;;;;5031282;28;21038;-49
2021/12/24 00:38:17;;;;;;;39.63;20.27;;;;;;;;;;5032100;28;20581;-49
2021/12/24 00:40:44;;;;;;;38.60;19.17;;;;;;;;;;5032360;28;20798;-49
2021/12/24 00:43:10;;;;;;;39.03;19.60;;;;;;;;;;5032492;28;20450;-49
2021/12/24 00:45:42;;;;;;;37.03;17.80;;;;;;;;;;5031363;28;20416;-49
2021/12/24 00:48:08;;;;;;;35.77;18.80;;;;;;;;;;5031994;28;20446;-49
2021/12/24 00:55:59;;;;;;;38.43;19.63;;;;;;;;;;5031059;28;20456;-51
2021/12/24 00:58:25;;;;;;;40.30;19.83;;;;;;;;;;5031814;28;20825;-49
2021/12/24 01:00:51;;;;;;;43.57;19.37;;;;;;;;;;5032023;28;20439;-51
2021/12/24 01:03:17;;;;;;;45.60;20.13;;;;;;;;;;5031769;28;20438;-49
2021/12/24 01:05:43;;;;;;;43.80;19.83;;;;;;;;;;5030920;28;20794;-49
2021/12/24 01:08:11;;;;;;;43.70;19.83;;;;;;;;;;5036211;28;20406;-49
2021/12/24 01:10:39;;;;;;;46.07;19.50;;;;;;;;;;5038223;28;20505;-51
2021/12/24 01:13:05;;;;;;;33.90;18.30;;;;;;;;;;5038133;28;20438;-50
2021/12/24 01:15:34;;;;;;;38.57;17.97;;;;;;;;;;5037474;28;20459;-49
2021/12/24 01:18:12;;;;;;;39.83;17.93;;;;;;;;;;5038188;28;20952;-49
2021/12/24 01:39:06;;;;;;;28.43;15.10;;;;;;;;;;5038343;28;20462;-49
2021/12/24 01:44:26;;;;;;;27.33;14.90;;;;;;;;;;5000595;28;20430;-48
2021/12/24 01:49:38;;;;;;;22.43;13.80;;;;;;;;;;5038555;28;20406;-48
2021/12/24 01:52:05;;;;;;;32.57;15.00;;;;;;;;;;5037862;28;20546;-49
2021/12/24 01:54:31;;;;;;;29.87;15.70;;;;;;;;;;5037470;28;20884;-49
2021/12/24 01:56:57;;;;;;;27.10;15.50;;;;;;;;;;5037656;28;20438;-49
2021/12/24 01:59:23;;;;;;;29.63;15.20;;;;;;;;;;5037900;28;20431;-48
2021/12/24 02:01:49;;;;;;;28.20;15.83;;;;;;;;;;5037736;28;20452;-49
2021/12/24 02:04:16;;;;;;;31.70;16.20;;;;;;;;;;5036765;28;20402;-49
2021/12/24 02:06:43;;;;;;;32.93;15.83;;;;;;;;;;5036869;28;20516;-48
2021/12/24 02:09:09;;;;;;;25.13;14.57;;;;;;;;;;5037685;28;20444;-50
2021/12/24 02:11:38;;;;;;;30.40;15.90;;;;;;;;;;5037691;28;20454;-48
2021/12/24 02:14:05;;;;;;;31.42;15.43;;;;;;;;;;5037668;28;20169;-49
2021/12/24 02:30:19;;;;;;;31.97;17.60;;;;;;;;;;5034736;28;20760;-48
2021/12/24 02:32:45;;;;;;;43.90;16.43;;;;;;;;;;5034313;28;20400;-49
2021/12/24 02:35:11;;;;;;;45.10;19.00;;;;;;;;;;5033633;28;20400;-50
2021/12/24 02:37:37;;;;;;;39.23;19.77;;;;;;;;;;5034159;28;20459;-49
2021/12/24 02:40:04;;;;;;;38.77;19.07;;;;;;;;;;5034224;28;20399;-49
2021/12/24 02:42:30;;;;;;;44.63;19.83;;;;;;;;;;5034089;28;20402;-49
2021/12/24 02:44:57;;;;;;;46.00;21.33;;;;;;;;;;5033503;28;20818;-49
2021/12/24 02:55:01;;;;;;;45.60;22.13;;;;;;;;;;5033291;28;20487;-49
2021/12/24 02:57:28;;;;;;;50.00;22.73;;;;;;;;;;5033878;28;20499;-49
2021/12/24 03:00:13;;;;;;;47.57;22.50;;;;;;;;;;5034100;28;20394;-49
2021/12/24 03:02:43;;;;;;;50.07;21.90;;;;;;;;;;5033878;28;20408;-50
2021/12/24 03:05:12;;;;;;;50.80;23.97;;;;;;;;;;5033218;28;20404;-48
2021/12/24 03:07:38;;;;;;;55.03;23.20;;;;;;;;;;5033682;28;20495;-49
2021/12/24 03:10:05;;;;;;;53.53;24.10;;;;;;;;;;5033585;28;20408;-50
2021/12/24 03:12:32;;;;;;;49.27;23.70;;;;;;;;;;5033648;28;20516;-49
2021/12/24 03:14:58;;;;;;;52.43;22.07;;;;;;;;;;5033003;28;20408;-48
2021/12/24 03:17:26;;;;;;;43.67;21.60;;;;;;;;;;5033401;28;20420;-49
2021/12/24 03:19:55;;;;;;;43.60;20.83;;;;;;;;;;5033484;28;20405;-49
2021/12/24 03:22:49;;;;;;;52.03;21.40;;;;;;;;;;5033481;28;20888;-49
2021/12/24 03:25:15;;;;;;;43.00;20.03;;;;;;;;;;5032915;28;20998;-50
2021/12/24 03:27:42;;;;;;;44.20;19.63;;;;;;;;;;5033128;28;20423;-50
2021/12/24 03:30:08;;;;;;;42.07;19.27;;;;;;;;;;5032992;28;20415;-51
2021/12/24 03:32:34;;;;;;;35.83;18.40;;;;;;;;;;5033100;28;20498;-49
2021/12/24 03:35:00;;;;;;;45.47;19.00;;;;;;;;;;5032544;28;20860;-49
2021/12/24 03:37:26;;;;;;;47.73;20.03;;;;;;;;;;5033103;28;20435;-50
2021/12/24 03:39:52;;;;;;;36.67;19.73;;;;;;;;;;5033113;28;20763;-50
2021/12/24 03:42:18;;;;;;;42.40;20.87;;;;;;;;;;5033059;28;20415;-49
2021/12/24 03:44:52;;;;;;;38.67;19.43;;;;;;;;;;5032422;28;20408;-49
2021/12/24 03:47:20;;;;;;;42.23;19.47;;;;;;;;;;5032906;28;20438;-49
2021/12/24 03:52:36;;;;;;;37.50;19.50;;;;;;;;;;5032781;28;20505;-51
2021/12/24 03:55:06;;;;;;;49.20;22.77;;;;;;;;;;5032685;28;20398;-49
2021/12/24 03:57:36;;;;;;;61.20;23.03;;;;;;;;;;5032566;28;20423;-49
2021/12/24 04:00:17;;;;;;;56.30;24.17;;;;;;;;;;5032688;28;20400;-50
2021/12/24 04:02:43;;;;;;;54.13;21.93;;;;;;;;;;5032710;28;20408;-48
2021/12/24 04:05:09;;;;;;;46.73;25.00;;;;;;;;;;5032007;28;20442;-49
2021/12/24 04:07:35;;;;;;;60.93;26.67;;;;;;;;;;5032492;28;20438;-49
2021/12/24 04:10:05;;;;;;;55.73;27.40;;;;;;;;;;5032470;28;20505;-49
2021/12/24 04:12:31;;;;;;;66.23;29.00;;;;;;;;;;5032495;28;20495;-49
2021/12/24 04:14:57;;;;;;;57.80;28.17;;;;;;;;;;5031717;28;20444;-49
2021/12/24 04:17:23;;;;;;;66.77;26.10;;;;;;;;;;5032312;28;20452;-49
2021/12/24 04:25:31;;;;;;;56.27;25.37;;;;;;;;;;5031824;28;20466;-50
2021/12/24 04:27:59;;;;;;;59.20;26.40;;;;;;;;;;5032169;28;20416;-49
2021/12/24 04:30:30;;;;;;;59.07;25.27;;;;;;;;;;5032408;28;20800;-49
2021/12/24 04:33:09;;;;;;;65.17;27.67;;;;;;;;;;5032163;28;20939;-50
2021/12/24 04:35:46;;;;;;;63.20;27.60;;;;;;;;;;5030161;28;20495;-49
2021/12/24 04:51:50;;;;;;;59.30;26.07;;;;;;;;;;5031962;28;20464;-51
2021/12/24 05:05:11;;;;;;;61.50;28.37;;;;;;;;;;5031288;28;20464;-50
2021/12/24 05:10:12;;;;;;;71.93;28.90;;;;;;;;;;5031715;28;20407;-50
2021/12/24 05:12:38;;;;;;;73.97;29.83;;;;;;;;;;5031608;28;20847;-50
2021/12/24 05:15:07;;;;;;;77.00;30.17;;;;;;;;;;5031182;28;20417;-50
2021/12/24 05:17:50;;;;;;;73.53;30.23;;;;;;;;;;5031837;28;20452;-51
2021/12/24 05:23:02;;;;;;;80.53;30.80;;;;;;;;;;5031545;28;20439;-49
2021/12/24 05:25:27;;;;;;;62.27;29.43;;;;;;;;;;5030841;28;20425;-51
2021/12/24 05:27:55;;;;;;;74.77;29.87;;;;;;;;;;5031398;28;20452;-51
2021/12/24 05:30:22;;;;;;;62.80;29.20;;;;;;;;;;5031653;28;20777;-51
2021/12/24 05:32:49;;;;;;;64.67;28.73;;;;;;;;;;5031453;28;20464;-50
2021/12/24 05:35:15;;;;;;;74.23;32.37;;;;;;;;;;5030830;28;20402;-52
2021/12/24 05:37:41;;;;;;;67.90;31.13;;;;;;;;;;5031254;28;20434;-50
2021/12/24 05:40:07;;;;;;;66.47;30.67;;;;;;;;;;5031671;28;20410;-52
2021/12/24 05:42:33;;;;;;;76.77;31.17;;;;;;;;;;5030115;28;20549;-53
2021/12/24 05:45:04;;;;;;;63.47;30.47;;;;;;;;;;5030780;28;20406;-51
2021/12/24 05:47:30;;;;;;;75.20;29.87;;;;;;;;;;5031365;28;20993;-51
2021/12/24 05:49:57;;;;;;;67.30;30.10;;;;;;;;;;5031272;28;20408;-51
2021/12/24 05:52:23;;;;;;;61.53;28.93;;;;;;;;;;5031226;28;20451;-50
2021/12/24 05:54:49;;;;;;;70.17;30.37;;;;;;;;;;5033774;28;20412;-51
2021/12/24 05:57:15;;;;;;;68.23;31.27;;;;;;;;;;5034846;28;20418;-51
2021/12/24 05:59:41;;;;;;;64.03;30.40;;;;;;;;;;5035106;28;20402;-53
2021/12/24 06:02:09;;;;;;;72.70;31.80;;;;;;;;;;5034951;28;20415;-52
2021/12/24 06:04:35;;;;;;;68.63;30.20;;;;;;;;;;5034311;28;20408;-53
2021/12/24 06:07:01;;;;;;;78.67;32.97;;;;;;;;;;5034779;28;20515;-52
2021/12/24 06:09:27;;;;;;;73.47;32.53;;;;;;;;;;5034852;28;20410;-50
2021/12/24 06:11:53;;;;;;;82.50;34.20;;;;;;;;;;5034625;28;20518;-52
2021/12/24 06:14:19;;;;;;;87.73;34.07;;;;;;;;;;5034682;28;20404;-51
2021/12/24 06:17:01;;;;;;;82.63;31.63;;;;;;;;;;5033989;28;20418;-52
2021/12/24 06:19:27;;;;;;;83.13;35.00;;;;;;;;;;5034722;28;20397;-51
2021/12/24 06:21:54;;;;;;;86.23;36.10;;;;;;;;;;5034549;28;20746;-51
2021/12/24 06:24:20;;;;;;;94.93;35.20;;;;;;;;;;5034470;28;20897;-52
2021/12/24 06:26:48;;;;;;;98.43;34.17;;;;;;;;;;5033468;28;20514;-51
2021/12/24 06:29:14;;;;;;;89.27;34.70;;;;;;;;;;5034597;28;20528;-51
2021/12/24 06:31:40;;;;;;;94.67;34.37;;;;;;;;;;5034271;28;21005;-51
2021/12/24 06:34:07;;;;;;;92.13;32.83;;;;;;;;;;5034472;28;20399;-50
2021/12/24 06:36:36;;;;;;;89.57;35.03;;;;;;;;;;5033638;28;20777;-51
2021/12/24 06:39:02;;;;;;;85.17;32.77;;;;;;;;;;5034424;28;20427;-51
2021/12/24 06:41:28;;;;;;;79.43;32.03;;;;;;;;;;5034326;28;20432;-50
2021/12/24 06:43:54;;;;;;;80.80;34.77;;;;;;;;;;5034537;28;20404;-51
2021/12/24 06:46:20;;;;;;;78.57;34.43;;;;;;;;;;5033895;28;20427;-52
2021/12/24 06:48:48;;;;;;;69.40;32.17;;;;;;;;;;5035215;28;20407;-53
2021/12/24 06:51:14;;;;;;;75.73;34.03;;;;;;;;;;5035069;28;21038;-50
2021/12/24 06:53:40;;;;;;;74.97;31.70;;;;;;;;;;5036264;28;20506;-52
2021/12/24 06:56:06;;;;;;;70.70;32.43;;;;;;;;;;5035788;28;20658;-52
2021/12/24 06:58:32;;;;;;;66.43;30.87;;;;;;;;;;5035953;28;20404;-51
2021/12/24 07:00:58;;;;;;;73.80;32.00;;;;;;;;;;5036269;28;20497;-52
2021/12/24 07:03:24;;;;;;;73.00;31.37;;;;;;;;;;5036434;28;20415;-50
2021/12/24 07:05:50;;;;;;;69.70;31.53;;;;;;;;;;5034724;28;20841;-52
2021/12/24 07:08:17;;;;;;;65.63;30.63;;;;;;;;;;5036628;28;20444;-52
2021/12/24 07:10:43;;;;;;;72.20;30.37;;;;;;;;;;5036690;28;20686;-52
2021/12/24 07:13:09;;;;;;;64.53;30.40;;;;;;;;;;5036134;28;20430;-51
2021/12/24 07:15:36;;;;;;;67.23;31.40;;;;;;;;;;5035216;28;20402;-51
2021/12/24 07:18:02;;;;;;;71.03;30.77;;;;;;;;;;5036728;28;20408;-52
2021/12/24 07:20:28;;;;;;;69.23;30.40;;;;;;;;;;5036097;28;20415;-50
2021/12/24 07:22:54;;;;;;;73.63;30.53;;;;;;;;;;5036338;28;20899;-50
2021/12/24 07:25:20;;;;;;;66.53;28.30;;;;;;;;;;5035789;28;20416;-51
2021/12/24 07:27:48;;;;;;;70.50;28.80;;;;;;;;;;5035956;28;20489;-52
2021/12/24 07:30:18;;;;;;;78.13;31.03;;;;;;;;;;5035597;28;20420;-52
2021/12/24 07:32:45;;;;;;;74.93;29.93;;;;;;;;;;5036251;28;20458;-52
2021/12/24 07:35:11;;;;;;;71.90;26.50;;;;;;;;;;5035625;28;20403;-52
2021/12/24 07:37:37;;;;;;;62.37;26.87;;;;;;;;;;5035968;28;20498;-52
2021/12/24 07:40:04;;;;;;;66.20;28.93;;;;;;;;;;5035627;28;20393;-52
2021/12/24 07:42:31;;;;;;;57.03;26.37;;;;;;;;;;5035023;28;20408;-51
2021/12/24 07:44:57;;;;;;;68.03;26.83;;;;;;;;;;5034817;28;20520;-52
2021/12/24 07:47:35;;;;;;;54.47;24.77;;;;;;;;;;5035494;28;20918;-50
2021/12/24 07:50:14;;;;;;;59.27;25.63;;;;;;;;;;5034998;28;20779;-52
2021/12/24 07:52:40;;;;;;;62.87;28.40;;;;;;;;;;5035232;28;20470;-50
2021/12/24 07:55:09;;;;;;;55.20;26.20;;;;;;;;;;5033941;28;20406;-50
2021/12/24 07:57:35;;;;;;;56.17;23.97;;;;;;;;;;5034731;28;20426;-50
2021/12/24 08:00:01;;;;;;;47.93;22.50;;;;;;;;;;5034842;28;20490;-51
2021/12/24 08:02:28;;;;;;;55.77;24.23;;;;;;;;;;5034673;28;20406;-50
2021/12/24 08:04:56;;;;;;;55.33;26.77;;;;;;;;;;5033958;28;20486;-50
2021/12/24 08:07:23;;;;;;;57.30;25.43;;;;;;;;;;5034196;28;20441;-50
2021/12/24 08:09:52;;;;;;;57.60;25.50;;;;;;;;;;5034012;28;20803;-50
2021/12/24 08:12:18;;;;;;;62.13;25.80;;;;;;;;;;5033841;28;20459;-50
2021/12/24 08:14:45;;;;;;;63.67;27.83;;;;;;;;;;5033538;28;20907;-52
2021/12/24 08:17:12;;;;;;;67.43;26.50;;;;;;;;;;5033265;28;20447;-53
2021/12/24 08:19:38;;;;;;;57.03;25.27;;;;;;;;;;5033770;28;20412;-53
2021/12/24 08:22:04;;;;;;;53.53;25.90;;;;;;;;;;5033651;28;20403;-52
2021/12/24 08:24:30;;;;;;;53.60;24.37;;;;;;;;;;5033310;28;20414;-50
2021/12/24 08:26:57;;;;;;;56.87;26.60;;;;;;;;;;5033583;28;20418;-51
2021/12/24 08:29:23;;;;;;;64.23;25.77;;;;;;;;;;5034058;28;20430;-52
2021/12/24 08:31:52;;;;;;;47.63;23.60;;;;;;;;;;5033839;28;20817;-52
2021/12/24 08:34:19;;;;;;;58.17;26.70;;;;;;;;;;5033073;28;20403;-52
2021/12/24 08:36:45;;;;;;;50.80;24.07;;;;;;;;;;5032375;28;20418;-52
2021/12/24 08:39:12;;;;;;;56.30;23.33;;;;;;;;;;5032995;28;20939;-51
2021/12/24 08:41:38;;;;;;;55.67;23.73;;;;;;;;;;5033039;28;20402;-51
2021/12/24 08:44:04;;;;;;;38.17;21.07;;;;;;;;;;5032904;28;20437;-52
2021/12/24 08:46:30;;;;;;;48.73;22.30;;;;;;;;;;5032279;28;20433;-52
2021/12/24 08:48:56;;;;;;;41.83;20.97;;;;;;;;;;5032750;28;20443;-52
2021/12/24 08:51:22;;;;;;;41.67;19.90;;;;;;;;;;5032442;28;20450;-53
2021/12/24 08:53:48;;;;;;;34.67;19.17;;;;;;;;;;5032370;28;20409;-51
2021/12/24 08:56:14;;;;;;;46.73;21.63;;;;;;;;;;5031881;28;20420;-51
2021/12/24 08:58:40;;;;;;;35.67;19.37;;;;;;;;;;5032361;28;20889;-50
2021/12/24 09:01:07;;;;;;;43.23;20.20;;;;;;;;;;5032325;28;20409;-52
2021/12/24 09:03:33;;;;;;;41.77;18.60;;;;;;;;;;5032538;28;20409;-52
2021/12/24 09:05:59;;;;;;;51.80;19.73;;;;;;;;;;5031276;28;20429;-52
2021/12/24 09:08:25;;;;;;;44.40;19.97;;;;;;;;;;5032108;28;20415;-52
2021/12/24 09:10:51;;;;;;;45.67;21.13;;;;;;;;;;5032069;28;20827;-52
2021/12/24 09:13:17;;;;;;;40.77;19.37;;;;;;;;;;5032248;28;20828;-53
2021/12/24 09:15:43;;;;;;;39.30;20.13;;;;;;;;;;5031371;28;20943;-53
2021/12/24 09:18:10;;;;;;;36.37;18.07;;;;;;;;;;5031937;28;20429;-53
2021/12/24 09:20:40;;;;;;;52.93;22.60;;;;;;;;;;5031716;28;20400;-53
2021/12/24 09:23:07;;;;;;;39.90;18.63;;;;;;;;;;5031794;28;20403;-51
2021/12/24 09:25:34;;;;;;;47.53;20.83;;;;;;;;;;5031077;28;20398;-53
2021/12/24 09:28:00;;;;;;;35.80;19.50;;;;;;;;;;5032148;28;20470;-52
2021/12/24 09:30:27;;;;;;;42.33;20.23;;;;;;;;;;5035906;28;20435;-51
2021/12/24 09:32:54;;;;;;;45.00;21.33;;;;;;;;;;5035569;28;20459;-50
2021/12/24 09:35:20;;;;;;;38.40;20.90;;;;;;;;;;5031468;28;20398;-50
2021/12/24 09:37:47;;;;;;;41.87;20.30;;;;;;;;;;5015313;28;20449;-53
2021/12/24 09:40:14;;;;;;;41.30;19.07;;;;;;;;;;5015977;28;20400;-52
2021/12/24 09:42:41;;;;;;;55.00;22.17;;;;;;;;;;5015665;28;20427;-52
2021/12/24 09:45:09;;;;;;;56.90;20.37;;;;;;;;;;5014859;28;20403;-53
2021/12/24 09:47:35;;;;;;;40.00;20.10;;;;;;;;;;5015420;28;20421;-52
2021/12/24 09:50:01;;;;;;;39.60;19.23;;;;;;;;;;5015839;28;20496;-52
2021/12/24 09:52:28;;;;;;;40.93;18.20;;;;;;;;;;5015388;28;20456;-53
2021/12/24 09:54:54;;;;;;;45.70;19.53;;;;;;;;;;5014824;28;20406;-52
2021/12/24 09:57:20;;;;;;;47.43;20.37;;;;;;;;;;5015343;28;20415;-53
2021/12/24 09:59:46;;;;;;;48.83;19.60;;;;;;;;;;5015420;28;20887;-53
2021/12/24 10:02:19;;;;;;;44.77;18.77;;;;;;;;;;5015460;28;20405;-52
2021/12/24 10:04:45;;;;;;;43.67;19.37;;;;;;;;;;5014866;28;20403;-50
2021/12/24 10:07:13;;;;;;;42.23;19.40;;;;;;;;;;5014879;28;20801;-53
2021/12/24 10:09:43;;;;;;;46.93;17.73;;;;;;;;;;5014761;28;20421;-53
2021/12/24 10:12:22;;;;;;;34.10;19.17;;;;;;;;;;5014513;28;20508;-52
2021/12/24 10:14:50;;;;;;;34.03;17.37;;;;;;;;;;5014479;28;20409;-52
2021/12/24 10:17:20;;;;;;;36.03;18.87;;;;;;;;;;5014899;28;20453;-52
2021/12/24 10:19:47;;;;;;;38.83;17.87;;;;;;;;;;5014583;28;20394;-52
2021/12/24 10:22:14;;;;;;;36.20;18.50;;;;;;;;;;5015181;28;20401;-53
2021/12/24 10:24:40;;;;;;;36.97;17.33;;;;;;;;;;5013783;28;20462;-52
2021/12/24 10:27:06;;;;;;;32.30;17.07;;;;;;;;;;5014795;28;20950;-53
2021/12/24 10:29:41;;;;;;;39.63;19.57;;;;;;;;;;5014987;28;20434;-53
2021/12/24 10:32:19;;;;;;;37.10;16.70;;;;;;;;;;5015276;28;20461;-53
2021/12/24 10:34:46;;;;;;;40.80;17.23;;;;;;;;;;5014392;28;20407;-52
2021/12/24 10:37:22;;;;;;;47.53;17.43;;;;;;;;;;5014905;28;20494;-53
2021/12/24 10:39:51;;;;;;;31.10;18.83;;;;;;;;;;5013738;28;20406;-52
2021/12/24 10:42:19;;;;;;;32.83;16.37;;;;;;;;;;5015847;28;20964;-50
2021/12/24 10:44:46;;;;;;;42.97;17.40;;;;;;;;;;5017167;28;20486;-51
2021/12/24 10:47:12;;;;;;;36.40;17.87;;;;;;;;;;5014427;28;20427;-51
2021/12/24 10:54:57;;;;;;;35.47;15.80;;;;;;;;;;5014013;28;20883;-51
2021/12/24 10:57:26;;;;;;;31.80;15.97;;;;;;;;;;5014328;28;20418;-51
2021/12/24 10:59:54;;;;;;;31.03;16.23;;;;;;;;;;5020740;28;20418;-52
2021/12/24 11:02:28;;;;;;;29.60;16.57;;;;;;;;;;5030738;28;20778;-52
2021/12/24 11:04:54;;;;;;;27.57;15.93;;;;;;;;;;5033156;28;20413;-52
2021/12/24 11:07:38;;;;;;;26.00;15.00;;;;;;;;;;5033588;28;20429;-52
2021/12/24 11:10:04;;;;;;;35.00;17.00;;;;;;;;;;5033803;28;20442;-52
2021/12/24 11:12:37;;;;;;;32.23;17.40;;;;;;;;;;5035476;28;20450;-50
2021/12/24 11:15:16;;;;;;;31.50;15.77;;;;;;;;;;5032971;28;20405;-50
2021/12/24 11:17:42;;;;;;;30.23;16.80;;;;;;;;;;5033448;28;20474;-50
2021/12/24 11:20:12;;;;;;;35.67;17.10;;;;;;;;;;5033673;28;20489;-50
2021/12/24 11:22:50;;;;;;;33.13;16.53;;;;;;;;;;5033559;28;20419;-50
2021/12/24 11:25:16;;;;;;;31.33;15.20;;;;;;;;;;5031862;28;20460;-51
2021/12/24 11:27:42;;;;;;;33.77;16.90;;;;;;;;;;5032773;28;20800;-50
2021/12/24 11:30:08;;;;;;;34.47;17.10;;;;;;;;;;5033560;28;20408;-51
2021/12/24 11:32:35;;;;;;;36.97;17.87;;;;;;;;;;5033211;28;20465;-51
2021/12/24 11:35:01;;;;;;;48.40;23.20;;;;;;;;;;5031513;28;20453;-50
2021/12/24 11:37:27;;;;;;;56.40;20.03;;;;;;;;;;5033084;28;20428;-49
2021/12/24 11:39:53;;;;;;;33.03;16.47;;;;;;;;;;5033147;28;20951;-49
2021/12/24 11:42:21;;;;;;;31.50;15.30;;;;;;;;;;5033149;28;20402;-50
2021/12/24 11:44:47;;;;;;;25.70;14.77;;;;;;;;;;5032441;28;20406;-51
2021/12/24 11:47:13;;;;;;;30.63;15.00;;;;;;;;;;5017771;28;20481;-51
2021/12/24 11:49:40;;;;;;;29.13;13.60;;;;;;;;;;5013218;28;20900;-50
2021/12/24 11:52:07;;;;;;;28.97;14.27;;;;;;;;;;5012853;28;20463;-50
2021/12/24 11:54:33;;;;;;;28.47;13.80;;;;;;;;;;5012490;28;20497;-50
2021/12/24 11:56:59;;;;;;;27.93;13.47;;;;;;;;;;5022920;28;20435;-50
2021/12/24 11:59:39;;;;;;;27.17;13.00;;;;;;;;;;5032886;28;20436;-50
2021/12/24 12:02:06;;;;;;;27.63;13.20;;;;;;;;;;5032740;28;20912;-50
2021/12/24 12:04:32;;;;;;;23.00;12.30;;;;;;;;;;5016942;28;20405;-54
2021/12/24 12:07:18;;;;;;;33.43;12.00;;;;;;;;;;5028721;28;20983;-50
2021/12/24 12:09:44;;;;;;;24.47;11.07;;;;;;;;;;5032730;28;20429;-50
2021/12/24 12:12:14;;;;;;;20.53;11.50;;;;;;;;;;5032565;28;20457;-51
2021/12/24 12:14:41;;;;;;;27.80;11.60;;;;;;;;;;5032033;28;20563;-51
2021/12/24 12:17:08;;;;;;;24.80;12.33;;;;;;;;;;5032537;28;20418;-51
2021/12/24 12:24:57;;;;;;;25.03;12.50;;;;;;;;;;5031899;28;20453;-49
2021/12/24 12:27:34;;;;;;;26.33;13.10;;;;;;;;;;5032204;28;20968;-52
2021/12/24 12:30:19;;;;;;;26.30;13.47;;;;;;;;;;5029426;28;20414;-50
2021/12/24 12:32:45;;;;;;;22.00;11.33;;;;;;;;;;5026186;28;20871;-49
2021/12/24 12:35:11;;;;;;;23.00;12.27;;;;;;;;;;5016914;28;20422;-50
2021/12/24 12:37:43;;;;;;;26.00;13.63;;;;;;;;;;5025735;28;20426;-49
2021/12/24 12:40:12;;;;;;;31.10;13.17;;;;;;;;;;5017021;28;20439;-51
2021/12/24 12:42:51;;;;;;;20.50;12.47;;;;;;;;;;5022459;28;20829;-49
2021/12/24 12:45:41;;;;;;;19.50;12.90;;;;;;;;;;5020652;28;20771;-49
2021/12/24 12:48:09;;;;;;;33.33;14.63;;;;;;;;;;5015868;28;20976;-50
2021/12/24 12:50:36;;;;;;;32.43;16.20;;;;;;;;;;5021134;28;20406;-50
2021/12/24 12:53:22;;;;;;;26.20;14.00;;;;;;;;;;5018665;28;20838;-50
2021/12/24 12:55:49;;;;;;;26.77;15.60;;;;;;;;;;5019611;28;20445;-50
2021/12/24 12:58:21;;;;;;;27.20;15.57;;;;;;;;;;5016269;28;20397;-49
2021/12/24 13:01:03;;;;;;;28.07;15.43;;;;;;;;;;5015493;28;20414;-52
2021/12/24 13:03:29;;;;;;;27.90;16.20;;;;;;;;;;5027513;28;20405;-49
2021/12/24 13:05:57;;;;;;;22.60;15.07;;;;;;;;;;5012530;28;20806;-49
2021/12/24 13:08:26;;;;;;;32.97;17.63;;;;;;;;;;5016149;28;20422;-49
2021/12/24 13:11:01;;;;;;;32.97;15.73;;;;;;;;;;5030897;28;20410;-50
2021/12/24 13:13:28;;;;;;;27.63;16.87;;;;;;;;;;5014546;28;20500;-50
2021/12/24 13:15:54;;;;;;;33.20;16.90;;;;;;;;;;5016996;28;20917;-49
2021/12/24 13:18:29;;;;;;;25.97;15.97;;;;;;;;;;5016989;28;20402;-50
2021/12/24 13:23:35;;;;;;;36.67;17.13;;;;;;;;;;5014309;28;20420;-50
2021/12/24 13:26:09;;;;;;;36.37;17.27;;;;;;;;;;5021641;28;20454;-50
2021/12/24 13:28:35;;;;;;;28.13;16.97;;;;;;;;;;5024313;28;20447;-49
2021/12/24 13:31:12;;;;;;;30.50;17.33;;;;;;;;;;5014896;28;20445;-50
2021/12/24 13:33:38;;;;;;;33.97;17.53;;;;;;;;;;5025792;28;20502;-50
2021/12/24 13:36:06;;;;;;;30.00;16.60;;;;;;;;;;5018344;28;20454;-50
2021/12/24 13:38:32;;;;;;;37.93;18.23;;;;;;;;;;5022057;28;20446;-51
2021/12/24 13:40:58;;;;;;;49.80;19.67;;;;;;;;;;5019686;28;20410;-50
2021/12/24 13:43:24;;;;;;;37.70;17.17;;;;;;;;;;5021309;28;20774;-50
2021/12/24 13:45:51;;;;;;;34.10;19.37;;;;;;;;;;5018045;28;20934;-51
2021/12/24 13:48:26;;;;;;;34.17;17.40;;;;;;;;;;5017025;28;20407;-50
2021/12/24 13:56:48;;;;;;;39.10;18.20;;;;;;;;;;5014117;28;20421;-50
2021/12/24 13:59:16;;;;;;;31.43;18.50;;;;;;;;;;5022262;28;20483;-50
2021/12/24 14:01:42;;;;;;;43.20;18.67;;;;;;;;;;5024069;28;20402;-49
2021/12/24 14:04:10;;;;;;;36.50;18.97;;;;;;;;;;5014732;28;20930;-50
2021/12/24 14:06:40;;;;;;;52.03;19.27;;;;;;;;;;5026445;28;20422;-51
2021/12/24 14:09:29;;;;;;;32.23;19.20;;;;;;;;;;5019263;28;20458;-49
2021/12/24 14:11:55;;;;;;;40.83;19.23;;;;;;;;;;5017885;28;20957;-49
2021/12/24 14:14:29;;;;;;;42.97;19.07;;;;;;;;;;5012105;28;20412;-49
2021/12/24 14:17:23;;;;;;;41.23;19.20;;;;;;;;;;5014600;28;20422;-50
2021/12/24 14:22:23;;;;;;;30.13;17.20;;;;;;;;;;5015019;28;20424;-51
2021/12/24 14:24:52;;;;;;;43.10;18.70;;;;;;;;;;5014251;28;20403;-50
2021/12/24 14:27:19;;;;;;;36.50;17.73;;;;;;;;;;5014733;28;20524;-50
2021/12/24 14:29:48;;;;;;;37.40;18.13;;;;;;;;;;5014726;28;20500;-49
2021/12/24 14:32:17;;;;;;;37.17;19.43;;;;;;;;;;5014687;28;20464;-49
2021/12/24 14:34:53;;;;;;;29.17;17.10;;;;;;;;;;5018406;28;20412;-51
2021/12/24 14:37:29;;;;;;;32.17;18.33;;;;;;;;;;5021145;28;20487;-51
2021/12/24 14:39:57;;;;;;;37.77;18.53;;;;;;;;;;5023756;28;20410;-52
2021/12/24 14:42:25;;;;;;;35.37;17.90;;;;;;;;;;5031043;28;20913;-52
2021/12/24 14:44:56;;;;;;;31.10;17.90;;;;;;;;;;5027693;28;20416;-52
2021/12/24 14:47:25;;;;;;;42.00;17.77;;;;;;;;;;5022495;28;20445;-53
2021/12/24 14:50:00;;;;;;;38.20;17.20;;;;;;;;;;5029914;28;20497;-53
2021/12/24 14:52:26;;;;;;;29.40;17.90;;;;;;;;;;5020565;28;20452;-52
2021/12/24 14:55:24;;;;;;;37.07;17.80;;;;;;;;;;5022645;28;20976;-53
2021/12/24 14:57:52;;;;;;;32.60;16.47;;;;;;;;;;4996084;28;20415;-51
2021/12/24 15:00:19;;;;;;;33.93;18.23;;;;;;;;;;5023692;28;20419;-51
2021/12/24 15:02:47;;;;;;;31.70;18.33;;;;;;;;;;5025815;28;20415;-52
2021/12/24 15:05:23;;;;;;;36.93;18.07;;;;;;;;;;5022909;28;20405;-52
2021/12/24 15:07:49;;;;;;;35.30;18.97;;;;;;;;;;5025346;28;20424;-50
2021/12/24 15:10:17;;;;;;;34.13;18.50;;;;;;;;;;5021791;28;20417;-50
2021/12/24 15:12:50;;;;;;;38.97;17.87;;;;;;;;;;5022901;28;20857;-50
2021/12/24 15:15:18;;;;;;;36.43;18.27;;;;;;;;;;5027402;28;20475;-50
2021/12/24 15:17:46;;;;;;;34.77;17.47;;;;;;;;;;5033642;28;20499;-50
2021/12/24 15:20:13;;;;;;;33.13;17.40;;;;;;;;;;5033439;28;20402;-50
2021/12/24 15:22:39;;;;;;;32.47;18.43;;;;;;;;;;5018142;28;20897;-51
2021/12/24 15:25:06;;;;;;;39.07;16.87;;;;;;;;;;5012922;28;20497;-51
2021/12/24 15:27:33;;;;;;;31.43;16.80;;;;;;;;;;5022906;28;20433;-50
2021/12/24 15:30:00;;;;;;;29.83;16.63;;;;;;;;;;5027681;28;20794;-51
2021/12/24 15:32:26;;;;;;;31.50;17.60;;;;;;;;;;5022867;28;20468;-49
2021/12/24 15:34:52;;;;;;;36.47;18.53;;;;;;;;;;5025806;28;20838;-50
2021/12/24 15:37:19;;;;;;;39.60;15.90;;;;;;;;;;5033220;28;20478;-50
2021/12/24 15:39:45;;;;;;;27.93;17.33;;;;;;;;;;5033341;28;20889;-49
2021/12/24 15:42:11;;;;;;;30.80;17.43;;;;;;;;;;5033357;28;20406;-49
2021/12/24 15:44:42;;;;;;;32.87;17.07;;;;;;;;;;5027477;28;20403;-50
2021/12/24 15:47:08;;;;;;;36.37;17.30;;;;;;;;;;5018566;28;20452;-51
2021/12/24 15:49:34;;;;;;;29.87;16.20;;;;;;;;;;5013262;28;20407;-51
2021/12/24 15:52:00;;;;;;;38.73;18.93;;;;;;;;;;5013080;28;20471;-51
2021/12/24 15:54:26;;;;;;;30.83;18.03;;;;;;;;;;5019675;28;20434;-50
2021/12/24 15:56:52;;;;;;;42.77;19.20;;;;;;;;;;5032699;28;20752;-50
2021/12/24 15:59:19;;;;;;;37.70;17.90;;;;;;;;;;5022814;28;20414;-50
2021/12/24 16:01:45;;;;;;;44.73;20.07;;;;;;;;;;5031300;28;20417;-50
2021/12/24 16:04:11;;;;;;;35.13;19.03;;;;;;;;;;5032607;28;20782;-51
2021/12/24 16:06:37;;;;;;;29.30;18.67;;;;;;;;;;5032028;28;20493;-51
2021/12/24 16:09:03;;;;;;;34.80;17.90;;;;;;;;;;5032733;28;20489;-50
2021/12/24 16:11:29;;;;;;;35.63;19.97;;;;;;;;;;5032753;28;20452;-50
2021/12/24 16:13:55;;;;;;;39.27;19.97;;;;;;;;;;5014022;28;20890;-50
2021/12/24 16:16:24;;;;;;;36.53;19.77;;;;;;;;;;5012113;28;20438;-49
2021/12/24 16:18:50;;;;;;;37.20;19.63;;;;;;;;;;5012905;28;21148;-50
2021/12/24 16:21:16;;;;;;;41.73;21.40;;;;;;;;;;5012732;28;20839;-50
2021/12/24 16:23:42;;;;;;;41.53;20.40;;;;;;;;;;5013042;28;20421;-50
2021/12/24 16:26:09;;;;;;;42.20;20.53;;;;;;;;;;5011989;28;21024;-49
2021/12/24 16:28:35;;;;;;;44.77;20.67;;;;;;;;;;5012348;28;20459;-51